首页
METAR-TAF:

METAR-TAF

机场 :

帕尔杜比采, 捷克共和国

纬度: 50-00-48N, 经度: 15-44-19E, 海拔: 226米

当前天气观测

该预报发布于23分钟前的23:00 UTC
风速3节,风向
温度 5°C
湿度 60%
气压 1031 hPa
能见度10公里或以上
1500米以下无云,无积雨云

METAR: LKPD 072300Z 10003KT CAVOK 05/M02 Q1031 RMK BLU

时间: 01:23 (23:23 UTC)

预报

该预报发布于6小时和23分钟前的17:00 UTC
预报有效从07日的 18点(UTC)到 08日的 18点(UTC)
风速8节,风向
能见度10公里或以上
1500米以下无云,无积雨云
短暂存在
从 07日的 20点(UTC)到 08日的 06点(UTC)
风速2节,风向多变
短暂存在
从 08日的 12点(UTC)到 08日的 18点(UTC)
风速16节,风向东转东南

TAF: LKPD 071700Z 0718/0818 09008KT CAVOK TEMPO 0720/0806 VRB02KT TEMPO 0812/0818 12016KT

超过4000个机场的气象观测和天气预报(METAR&TAF报告)。

可查询的气象台以黄色和红色小点在地图上表示。

将鼠标移到小点上方,可查看气象台名称。

然后点击查看天气观测和预报。

如需切换地图:点击带黑十字的绿色按钮放大地图;点击带横线的绿色按钮缩小地图;或者点击绿色箭头查看邻近地区的地图。


METAR-TAF: